Time;durP1;ratioP1;P1;durP2;ratioP2;P2;SDS_P1;SDS_P2;PMS_P1;PMS_P2;Temp;Humidity;BMP_temperature;BMP_pressure;BME280_temperature;BME280_humidity;BME280_pressure;Samples;Min_cycle;Max_cycle;Signal;HPM_P1;HPM_P2
2022/08/19 00:02:07;;;;;;;;;;;;;;;28.14;36.01;99016.56;5034569;28;20420;-77
2022/08/19 00:04:36;;;;;;;;;;;;;;;28.13;36.74;99021.22;5034490;28;19975;-77
2022/08/19 00:07:02;;;;;;;;;;;;;;;28.07;36.44;99019.72;5034669;28;19909;-77
2022/08/19 00:09:28;;;;;;;;;;;;;;;28.06;36.10;99020.03;5034513;28;20412;-77
2022/08/19 00:11:55;;;;;;;;;;;;;;;27.95;36.51;99024.06;5034294;28;19909;-77
2022/08/19 00:14:21;;;;;;;;;;;;;;;27.92;37.27;99011.91;5034293;28;20456;-77
2022/08/19 00:16:47;;;;;;;;;;;;;;;27.93;37.39;99015.44;5032740;28;19925;-77
2022/08/19 00:19:13;;;;;;;;;;;;;;;27.94;37.67;99014.31;5034072;28;19963;-77
2022/08/19 00:21:39;;;;;;;;;;;;;;;27.98;36.69;99020.75;5034239;28;19909;-77
2022/08/19 00:24:05;;;;;;;;;;;;;;;28.06;36.97;99022.72;5034060;28;20378;-77
2022/08/19 00:26:30;;;;;;;;;;;;;;;28.09;37.62;99024.84;5033884;28;19913;-77
2022/08/19 00:28:56;;;;;;;;;;;;;;;28.13;38.16;99023.13;5033839;28;19963;-77
2022/08/19 00:31:21;;;;;;;;;;;;;;;28.11;37.92;99019.91;5034148;28;19909;-77
2022/08/19 00:33:50;;;;;;;;;;;;;;;28.13;37.38;99023.91;5034074;28;19909;-77
2022/08/19 00:36:15;;;;;;;;;;;;;;;28.13;37.94;99014.97;5033995;28;19909;-77
2022/08/19 00:38:42;;;;;;;;;;;;;;;28.12;38.55;99018.78;5033930;28;19916;-77
2022/08/19 00:41:08;;;;;;;;;;;;;;;28.10;38.20;99021.81;5033808;28;19908;-77
2022/08/19 00:43:34;;;;;;;;;;;;;;;28.08;38.49;99018.59;5033705;28;20378;-77
2022/08/19 00:45:59;;;;;;;;;;;;;;;28.04;39.20;99022.25;5033622;28;19919;-77
2022/08/19 00:48:24;;;;;;;;;;;;;;;28.05;39.71;99015.69;5033683;28;19916;-77
2022/08/19 00:50:52;;;;;;;;;;;;;;;28.02;38.82;99014.41;5033554;28;19909;-77
2022/08/19 00:53:20;;;;;;;;;;;;;;;28.01;39.33;99018.22;5033337;28;19975;-77
2022/08/19 00:55:47;;;;;;;;;;;;;;;27.98;40.08;99015.31;5033484;28;20390;-77
2022/08/19 00:58:14;;;;;;;;;;;;;;;27.97;38.27;99014.50;5033534;28;19909;-77
2022/08/19 01:00:40;;;;;;;;;;;;;;;27.95;39.17;99024.88;5032256;28;19956;-77
2022/08/19 01:03:07;;;;;;;;;;;;;;;27.93;39.64;99015.44;5033319;28;20390;-77
2022/08/19 01:05:32;;;;;;;;;;;;;;;27.97;38.49;99011.00;5032762;28;19957;-77
2022/08/19 01:07:58;;;;;;;;;;;;;;;27.96;39.48;99018.34;5065143;28;19955;-77
2022/08/19 01:10:26;;;;;;;;;;;;;;;27.92;39.48;99028.19;5033275;28;19966;-77
2022/08/19 01:12:52;;;;;;;;;;;;;;;27.84;40.88;99016.16;5065077;28;19982;-77
2022/08/19 01:15:19;;;;;;;;;;;;;;;27.72;40.58;99015.06;5065059;28;19913;-77
2022/08/19 01:17:45;;;;;;;;;;;;;;;27.64;40.29;99011.16;5032749;28;19917;-77
2022/08/19 01:20:16;;;;;;;;;;;;;;;27.61;39.23;99011.75;5032821;28;19984;-77
2022/08/19 01:22:46;;;;;;;;;;;;;;;27.57;41.06;99015.34;5033043;28;19909;-77
2022/08/19 01:25:13;;;;;;;;;;;;;;;27.54;39.62;99014.84;5033091;28;20420;-77
2022/08/19 01:27:43;;;;;;;;;;;;;;;27.45;40.02;99015.84;5031492;28;20317;-77
2022/08/19 01:30:09;;;;;;;;;;;;;;;27.42;39.99;99014.53;5032784;28;19940;-77
2022/08/19 01:32:35;;;;;;;;;;;;;;;27.41;40.52;99017.53;5032680;28;20010;-77
2022/08/19 01:35:01;;;;;;;;;;;;;;;27.40;40.64;99013.22;5031487;28;20386;-77
2022/08/19 01:37:27;;;;;;;;;;;;;;;27.40;39.95;99013.22;5031479;28;19909;-77
2022/08/19 01:39:52;;;;;;;;;;;;;;;27.37;40.09;99011.91;5032757;28;19909;-77
2022/08/19 01:42:19;;;;;;;;;;;;;;;27.36;38.72;99021.16;5064639;28;19940;-77
2022/08/19 01:44:45;;;;;;;;;;;;;;;27.28;39.73;99021.06;5032649;28;19913;-77
2022/08/19 01:47:10;;;;;;;;;;;;;;;27.21;40.15;99016.84;5032492;28;19935;-77
2022/08/19 01:49:36;;;;;;;;;;;;;;;27.16;40.49;99016.94;5032532;28;19909;-77
2022/08/19 01:52:01;;;;;;;;;;;;;;;27.13;41.39;99020.22;5032292;28;19928;-77
2022/08/19 01:54:27;;;;;;;;;;;;;;;27.07;41.54;99010.59;5032264;28;20385;-77
2022/08/19 01:56:55;;;;;;;;;;;;;;;27.01;41.67;99014.50;5032398;28;19909;-77
2022/08/19 01:59:22;;;;;;;;;;;;;;;27.00;39.94;99014.81;5032508;28;20402;-77
2022/08/19 02:01:48;;;;;;;;;;;;;;;26.99;40.27;99011.28;5032275;28;19913;-77
2022/08/19 02:04:14;;;;;;;;;;;;;;;26.94;41.23;99016.75;5032247;28;19939;-77
2022/08/19 02:06:40;;;;;;;;;;;;;;;26.96;41.32;99016.47;5064313;28;19913;-77
2022/08/19 02:09:06;;;;;;;;;;;;;;;26.95;40.93;99021.09;5032153;28;19909;-77
2022/08/19 02:11:33;;;;;;;;;;;;;;;26.90;41.57;99015.75;5031386;28;20382;-77
2022/08/19 02:13:59;;;;;;;;;;;;;;;26.86;41.71;99020.16;5032230;28;20382;-77
2022/08/19 02:16:24;;;;;;;;;;;;;;;26.85;40.93;99032.09;5031773;28;19919;-77
2022/08/19 02:18:50;;;;;;;;;;;;;;;26.75;41.60;99035.75;5031287;28;19917;-77
2022/08/19 02:21:19;;;;;;;;;;;;;;;26.68;42.26;99026.41;5064128;28;20388;-77
2022/08/19 02:23:45;;;;;;;;;;;;;;;26.67;41.54;99035.63;5031988;28;19909;-77
2022/08/19 02:26:12;;;;;;;;;;;;;;;26.70;41.71;99035.03;5031909;28;19913;-77
2022/08/19 02:28:37;;;;;;;;;;;;;;;26.68;40.89;99042.66;5031821;28;19913;-77
2022/08/19 02:31:03;;;;;;;;;;;;;;;26.60;41.45;99036.81;5032178;28;19916;-77
2022/08/19 02:33:29;;;;;;;;;;;;;;;26.59;42.44;99040.63;5031698;28;19924;-77
2022/08/19 02:35:54;;;;;;;;;;;;;;;26.56;43.14;99045.81;5031838;28;20365;-77
2022/08/19 02:38:25;;;;;;;;;;;;;;;26.52;43.05;99048.31;5031878;28;19909;-77
2022/08/19 02:40:52;;;;;;;;;;;;;;;26.48;42.09;99051.91;5031681;28;19909;-77
2022/08/19 02:43:20;;;;;;;;;;;;;;;26.42;42.76;99050.38;5031681;28;19913;-77
2022/08/19 02:45:45;;;;;;;;;;;;;;;26.45;41.69;99057.91;5031884;28;19917;-77
2022/08/19 02:48:11;;;;;;;;;;;;;;;26.46;42.03;99060.31;5031709;28;19913;-77
2022/08/19 02:50:40;;;;;;;;;;;;;;;26.49;42.49;99065.16;5031810;28;19916;-77
2022/08/19 02:53:06;;;;;;;;;;;;;;;26.51;42.64;99062.94;5032188;28;20408;-77
2022/08/19 02:55:32;;;;;;;;;;;;;;;26.50;43.12;99076.78;5031682;28;19923;-77
2022/08/19 02:57:57;;;;;;;;;;;;;;;26.45;43.45;99063.31;5031836;28;19995;-77
2022/08/19 03:00:23;;;;;;;;;;;;;;;26.42;42.32;99074.72;5031704;28;19909;-77
2022/08/19 03:02:49;;;;;;;;;;;;;;;26.38;42.07;99074.50;5031382;28;19962;-77
2022/08/19 03:05:14;;;;;;;;;;;;;;;26.32;42.22;99077.56;5031385;28;20003;-77
2022/08/19 03:07:40;;;;;;;;;;;;;;;26.30;42.86;99085.97;5031292;28;19916;-77
2022/08/19 03:10:06;;;;;;;;;;;;;;;26.26;43.33;99085.75;5063554;28;19908;-77
2022/08/19 03:12:34;;;;;;;;;;;;;;;26.27;43.57;99083.84;5063510;28;19909;-77
2022/08/19 03:15:00;;;;;;;;;;;;;;;26.26;43.33;99074.94;5031298;28;19909;-77
2022/08/19 03:17:25;;;;;;;;;;;;;;;26.26;42.74;99084.94;5031297;28;19917;-77
2022/08/19 03:19:51;;;;;;;;;;;;;;;26.21;43.45;99079.59;5031616;28;19982;-77
2022/08/19 03:22:16;;;;;;;;;;;;;;;26.23;42.77;99086.34;5031437;28;20374;-77
2022/08/19 03:24:42;;;;;;;;;;;;;;;26.29;41.60;99081.66;5030976;28;20011;-77
2022/08/19 03:27:07;;;;;;;;;;;;;;;26.28;43.60;99085.47;5031368;28;19913;-77
2022/08/19 03:29:33;;;;;;;;;;;;;;;26.26;43.48;99096.56;5033523;28;19940;-77
2022/08/19 03:32:00;;;;;;;;;;;;;;;26.23;42.50;99099.06;5033727;28;19932;-77
2022/08/19 03:34:27;;;;;;;;;;;;;;;26.19;43.34;99096.13;5035064;28;20923;-77
2022/08/19 03:36:54;;;;;;;;;;;;;;;26.15;43.45;99099.72;5035023;28;19908;-77
2022/08/19 03:39:19;;;;;;;;;;;;;;;26.19;43.07;99096.13;5034724;28;19916;-77
2022/08/19 03:41:46;;;;;;;;;;;;;;;26.20;43.65;99105.06;5034906;28;19909;-77
2022/08/19 03:44:17;;;;;;;;;;;;;;;26.18;44.11;99102.63;5034829;28;19916;-77
2022/08/19 03:46:43;;;;;;;;;;;;;;;26.22;42.92;99116.41;5034833;28;19913;-77
2022/08/19 03:49:08;;;;;;;;;;;;;;;26.19;44.65;99114.28;5034709;28;20373;-77
2022/08/19 03:51:35;;;;;;;;;;;;;;;26.17;44.85;99121.88;5034856;28;19916;-77
2022/08/19 03:54:01;;;;;;;;;;;;;;;26.17;44.84;99111.06;5034781;28;20278;-77
2022/08/19 03:56:27;;;;;;;;;;;;;;;26.20;42.60;99115.88;5066568;28;19909;-77
2022/08/19 03:58:53;;;;;;;;;;;;;;;26.19;42.16;99116.97;5034573;28;19909;-77
2022/08/19 04:01:19;;;;;;;;;;;;;;;26.06;45.63;99117.69;5034529;28;19992;-77
2022/08/19 04:03:48;;;;;;;;;;;;;;;26.03;44.23;99115.56;5034580;28;19952;-77
2022/08/19 04:06:22;;;;;;;;;;;;;;;26.02;43.65;99116.66;5033205;28;19948;-77
2022/08/19 04:08:50;;;;;;;;;;;;;;;26.01;43.80;99123.97;5034425;28;19909;-77
2022/08/19 04:11:16;;;;;;;;;;;;;;;26.02;43.92;99127.47;5034350;28;19909;-77
2022/08/19 04:13:44;;;;;;;;;;;;;;;25.99;44.51;99128.84;5034170;28;20366;-77
2022/08/19 04:16:10;;;;;;;;;;;;;;;26.01;44.07;99126.69;5034167;28;19909;-77
2022/08/19 04:18:35;;;;;;;;;;;;;;;26.02;44.42;99131.00;5034056;28;19987;-77
2022/08/19 04:21:00;;;;;;;;;;;;;;;26.02;45.26;99135.59;5034540;28;19909;-77
2022/08/19 04:23:27;;;;;;;;;;;;;;;25.95;45.09;99131.31;5034408;28;19909;-77
2022/08/19 04:25:53;;;;;;;;;;;;;;;25.81;45.11;99127.69;5034008;28;19912;-77
2022/08/19 04:28:18;;;;;;;;;;;;;;;25.76;45.88;99130.44;5033872;28;19916;-77
2022/08/19 04:30:50;;;;;;;;;;;;;;;25.83;45.22;99136.31;5033929;28;19909;-77
2022/08/19 04:33:17;;;;;;;;;;;;;;;25.93;44.92;99127.28;5033936;28;20322;-77
2022/08/19 04:35:44;;;;;;;;;;;;;;;26.01;43.99;99131.25;5033708;28;19909;-77
2022/08/19 04:38:11;;;;;;;;;;;;;;;26.05;44.31;99129.59;5033991;28;19916;-77
2022/08/19 04:43:27;;;;;;;;;;;;;;;26.09;43.36;99131.44;5034080;28;20051;-77
2022/08/19 04:45:53;;;;;;;;;;;;;;;26.12;44.25;99128.16;5033819;28;19995;-77
2022/08/19 04:48:26;;;;;;;;;;;;;;;26.18;44.46;99135.13;5033726;28;19909;-77
2022/08/19 04:50:57;;;;;;;;;;;;;;;26.18;44.58;99128.91;5033688;28;20366;-77
2022/08/19 04:53:32;;;;;;;;;;;;;;;26.20;43.71;99130.22;5065341;28;19909;-77
2022/08/19 04:55:58;;;;;;;;;;;;;;;26.21;44.31;99125.63;5033358;28;19916;-77
2022/08/19 04:58:24;;;;;;;;;;;;;;;26.22;43.49;99125.31;5065637;28;19908;-77
2022/08/19 05:00:50;;;;;;;;;;;;;;;26.28;44.58;99132.28;5065422;28;19909;-77
2022/08/19 05:03:16;;;;;;;;;;;;;;;26.35;44.69;99131.94;5032027;28;20305;-77
2022/08/19 05:05:42;;;;;;;;;;;;;;;26.43;43.60;99134.00;5033331;28;19995;-78
2022/08/19 05:08:07;;;;;;;;;;;;;;;26.47;44.04;99129.63;5031870;28;19932;-77
2022/08/19 05:10:36;;;;;;;;;;;;;;;26.53;43.80;99128.44;5033223;28;19963;-77
2022/08/19 05:13:02;;;;;;;;;;;;;;;26.58;43.45;99122.94;5033068;28;19909;-77
2022/08/19 05:15:27;;;;;;;;;;;;;;;26.67;44.29;99127.69;5033266;28;19919;-77
2022/08/19 05:23:24;;;;;;;;;;;;;;;26.94;43.78;99133.25;5033355;28;19967;-77
2022/08/19 05:25:52;;;;;;;;;;;;;;;27.00;44.24;99129.41;5031643;28;19913;-77
2022/08/19 05:28:19;;;;;;;;;;;;;;;27.06;44.70;99127.41;5032981;28;19913;-77
2022/08/19 05:30:44;;;;;;;;;;;;;;;27.10;43.72;99123.81;5032741;28;20417;-77
2022/08/19 05:33:11;;;;;;;;;;;;;;;27.16;43.71;99133.47;5032738;28;19909;-77
2022/08/19 05:35:37;;;;;;;;;;;;;;;27.22;43.85;99126.06;5032763;28;19999;-77
2022/08/19 05:38:02;;;;;;;;;;;;;;;27.28;43.73;99127.56;5032873;28;19941;-77
2022/08/19 05:40:28;;;;;;;;;;;;;;;27.29;44.72;99128.38;5032756;28;20420;-77
2022/08/19 05:42:53;;;;;;;;;;;;;;;27.33;44.56;99122.06;5064700;28;19909;-77
2022/08/19 05:45:19;;;;;;;;;;;;;;;27.39;44.14;99125.50;5032592;28;19913;-77
2022/08/19 05:47:45;;;;;;;;;;;;;;;27.49;44.02;99138.84;5032357;28;19916;-77
2022/08/19 05:50:10;;;;;;;;;;;;;;;27.53;43.93;99132.56;5031224;28;19917;-77
2022/08/19 05:52:37;;;;;;;;;;;;;;;27.56;44.00;99136.59;5025369;28;19913;-77
2022/08/19 05:55:03;;;;;;;;;;;;;;;27.62;44.41;99135.41;5026269;28;20404;-78
2022/08/19 05:57:28;;;;;;;;;;;;;;;27.64;44.35;99135.13;5032014;28;19913;-78
2022/08/19 05:59:54;;;;;;;;;;;;;;;27.70;43.58;99136.63;5030595;28;19962;-78
2022/08/19 06:02:20;;;;;;;;;;;;;;;27.77;43.27;99140.56;5045689;28;19971;-78
2022/08/19 06:04:45;;;;;;;;;;;;;;;27.84;44.26;99151.00;5032176;28;20290;-78
2022/08/19 06:07:10;;;;;;;;;;;;;;;27.89;43.09;99152.81;5024790;28;19909;-78
2022/08/19 06:09:37;;;;;;;;;;;;;;;27.91;43.22;99145.97;5031826;28;19909;-78
2022/08/19 06:12:04;;;;;;;;;;;;;;;27.94;43.57;99148.09;5031450;28;20377;-78
2022/08/19 06:14:30;;;;;;;;;;;;;;;28.01;43.86;99147.69;5031848;28;19952;-78
2022/08/19 06:16:56;;;;;;;;;;;;;;;28.06;42.96;99148.38;5031733;28;19956;-78
2022/08/19 06:19:24;;;;;;;;;;;;;;;28.11;43.16;99152.91;5031671;28;20373;-78
2022/08/19 06:21:51;;;;;;;;;;;;;;;28.19;43.16;99157.63;5031367;28;20000;-78
2022/08/19 06:24:18;;;;;;;;;;;;;;;28.22;43.41;99154.31;5031140;28;19921;-78
2022/08/19 06:26:46;;;;;;;;;;;;;;;28.26;43.14;99158.06;5041864;28;19928;-78
2022/08/19 06:29:12;;;;;;;;;;;;;;;28.33;42.61;99160.38;5027989;28;19995;-78
2022/08/19 06:31:41;;;;;;;;;;;;;;;28.41;42.90;99155.03;5031674;28;20312;-78
2022/08/19 06:34:06;;;;;;;;;;;;;;;28.50;42.36;99157.03;5031703;28;20302;-78
2022/08/19 06:36:36;;;;;;;;;;;;;;;28.53;42.44;99162.66;5062373;28;19913;-78
2022/08/19 06:39:03;;;;;;;;;;;;;;;28.61;42.13;99161.13;5029985;28;19920;-78
2022/08/19 06:41:30;;;;;;;;;;;;;;;28.66;42.20;99158.28;5015231;28;19915;-78
2022/08/19 06:43:55;;;;;;;;;;;;;;;28.73;42.63;99164.91;5031516;28;19909;-78
2022/08/19 06:46:20;;;;;;;;;;;;;;;28.82;41.82;99175.03;5031254;28;19917;-78
2022/08/19 06:48:46;;;;;;;;;;;;;;;28.85;42.46;99163.59;5031400;28;19992;-78
2022/08/19 06:51:15;;;;;;;;;;;;;;;28.91;41.56;99154.22;5028847;28;19978;-78
2022/08/19 06:53:41;;;;;;;;;;;;;;;28.97;41.90;99164.66;5029627;28;19916;-78
2022/08/19 06:56:06;;;;;;;;;;;;;;;29.07;41.84;99164.44;5030531;28;20004;-78
2022/08/19 06:58:31;;;;;;;;;;;;;;;29.15;41.71;99165.59;5028949;28;20034;-78
2022/08/19 07:01:06;;;;;;;;;;;;;;;29.22;41.18;99162.44;5054842;28;19921;-78
2022/08/19 07:03:34;;;;;;;;;;;;;;;29.30;40.93;99159.78;5027939;28;19921;-78
2022/08/19 07:06:07;;;;;;;;;;;;;;;29.34;40.80;99162.69;5029725;28;19972;-78
2022/08/19 07:08:32;;;;;;;;;;;;;;;29.39;40.97;99168.00;5044978;28;20019;-78
2022/08/19 07:10:58;;;;;;;;;;;;;;;29.47;40.83;99170.00;5034696;28;19999;-78
2022/08/19 07:13:23;;;;;;;;;;;;;;;29.53;40.61;99160.59;5033059;28;19920;-78
2022/08/19 07:15:50;;;;;;;;;;;;;;;29.58;40.66;99157.72;5035408;28;19912;-78
2022/08/19 07:18:15;;;;;;;;;;;;;;;29.08;40.05;99079.06;5035243;28;20398;-78
2022/08/19 07:20:42;;;;;;;;;;;;;;;29.64;40.17;99158.41;5030969;28;19971;-78
2022/08/19 07:23:08;;;;;;;;;;;;;;;29.73;40.44;99149.19;5029389;28;20358;-78
2022/08/19 07:25:35;;;;;;;;;;;;;;;29.80;40.21;99148.72;5033482;28;19975;-78
2022/08/19 07:28:01;;;;;;;;;;;;;;;29.90;40.00;99150.38;5023777;28;19948;-78
2022/08/19 07:30:26;;;;;;;;;;;;;;;30.00;40.08;99150.88;5038656;28;19952;-78
2022/08/19 07:32:51;;;;;;;;;;;;;;;30.05;39.18;99147.25;5047603;28;20004;-78
2022/08/19 07:35:19;;;;;;;;;;;;;;;30.10;39.60;99151.75;5050502;28;19912;-78
2022/08/19 07:37:44;;;;;;;;;;;;;;;30.14;39.54;99153.50;5029892;28;19917;-78
2022/08/19 07:40:10;;;;;;;;;;;;;;;30.21;39.04;99151.13;5027383;28;20317;-78
2022/08/19 07:42:35;;;;;;;;;;;;;;;30.25;38.87;99157.53;5027434;28;19913;-78
2022/08/19 07:45:01;;;;;;;;;;;;;;;30.33;39.20;99145.84;5031412;28;19959;-78
2022/08/19 07:47:28;;;;;;;;;;;;;;;30.41;39.83;99157.09;5034424;28;19913;-78
2022/08/19 07:49:53;;;;;;;;;;;;;;;30.50;38.90;99145.09;5041805;28;19917;-77
2022/08/19 07:52:18;;;;;;;;;;;;;;;30.56;39.18;99149.28;5037156;28;19912;-77
2022/08/19 07:54:44;;;;;;;;;;;;;;;30.64;38.19;99147.72;5039694;28;19935;-77
2022/08/19 07:57:09;;;;;;;;;;;;;;;30.74;38.79;99146.59;5028262;28;19921;-77
2022/08/19 07:59:34;;;;;;;;;;;;;;;30.79;38.28;99144.50;5027990;28;20032;-77
2022/08/19 08:02:00;;;;;;;;;;;;;;;30.86;38.18;99150.28;5028146;28;19912;-77
2022/08/19 08:09:54;;;;;;;;;;;;;;;31.10;37.61;99140.78;5030407;28;20064;-78
2022/08/19 08:12:23;;;;;;;;;;;;;;;31.19;37.90;99141.59;5041522;28;19996;-78
2022/08/19 08:14:49;;;;;;;;;;;;;;;31.31;37.46;99141.75;5056624;28;19967;-78
2022/08/19 08:17:16;;;;;;;;;;;;;;;31.41;37.44;99133.22;5028933;28;20008;-78
2022/08/19 08:19:42;;;;;;;;;;;;;;;31.50;36.61;99139.47;5044656;28;19962;-78
2022/08/19 08:22:08;;;;;;;;;;;;;;;31.62;36.80;99136.03;5045090;28;19916;-78
2022/08/19 08:24:34;;;;;;;;;;;;;;;31.71;36.77;99136.03;5042816;28;20310;-78
2022/08/19 08:27:00;;;;;;;;;;;;;;;31.81;36.37;99139.19;5046173;28;20353;-78
2022/08/19 08:29:27;;;;;;;;;;;;;;;31.89;36.24;99132.09;5041109;28;20024;-78
2022/08/19 08:31:53;;;;;;;;;;;;;;;31.98;36.13;99137.53;5052098;28;19965;-78
2022/08/19 08:34:18;;;;;;;;;;;;;;;32.05;35.76;99132.38;5047183;28;20368;-78
2022/08/19 08:36:45;;;;;;;;;;;;;;;32.15;35.91;99135.50;5030180;28;20052;-78
2022/08/19 08:39:15;;;;;;;;;;;;;;;32.28;35.21;99132.91;5026343;28;19913;-78
2022/08/19 08:41:40;;;;;;;;;;;;;;;32.39;35.42;99131.38;5032564;28;19915;-78
2022/08/19 08:44:11;;;;;;;;;;;;;;;32.45;34.95;99128.09;5031618;28;19995;-78
2022/08/19 08:46:38;;;;;;;;;;;;;;;32.35;34.87;99124.97;5032822;28;19921;-78
2022/08/19 08:49:08;;;;;;;;;;;;;;;32.44;34.81;99122.97;5029288;28;19971;-78
2022/08/19 08:51:45;;;;;;;;;;;;;;;32.56;34.46;99125.78;5032822;28;19935;-78
2022/08/19 08:54:12;;;;;;;;;;;;;;;32.78;34.54;99125.47;5033003;28;20313;-78
2022/08/19 08:56:38;;;;;;;;;;;;;;;32.98;33.56;99112.09;5034896;28;19925;-77
2022/08/19 08:59:16;;;;;;;;;;;;;;;33.16;33.60;99111.59;5032125;28;20223;-78
2022/08/19 09:01:42;;;;;;;;;;;;;;;33.39;33.57;99120.22;5033110;28;19909;-78
2022/08/19 09:04:07;;;;;;;;;;;;;;;33.59;32.37;99115.03;5045116;28;19913;-77
2022/08/19 09:06:59;;;;;;;;;;;;;;;33.66;32.96;99113.31;5039113;28;19917;-78
2022/08/19 09:09:34;;;;;;;;;;;;;;;33.85;32.61;99106.50;5028851;28;19916;-78
2022/08/19 09:11:59;;;;;;;;;;;;;;;34.06;32.65;99112.66;5051526;28;19924;-78
2022/08/19 09:14:40;;;;;;;;;;;;;;;34.23;32.67;99112.44;5036943;28;20384;-78
2022/08/19 09:17:07;;;;;;;;;;;;;;;34.36;31.78;99102.25;5025653;28;19925;-78
2022/08/19 09:19:34;;;;;;;;;;;;;;;34.51;31.76;99101.53;5029156;28;20012;-77
2022/08/19 09:22:00;;;;;;;;;;;;;;;34.73;31.07;99103.72;5032349;28;19917;-78
2022/08/19 09:24:25;;;;;;;;;;;;;;;34.89;30.40;99101.06;5027485;28;19932;-78
2022/08/19 09:26:50;;;;;;;;;;;;;;;35.06;31.13;99099.19;5021942;28;19917;-78
2022/08/19 09:29:16;;;;;;;;;;;;;;;35.21;30.91;99093.72;5026671;28;20376;-78
2022/08/19 09:31:41;;;;;;;;;;;;;;;35.35;30.68;99099.59;5041382;28;19909;-78
2022/08/19 09:34:06;;;;;;;;;;;;;;;35.46;28.71;99101.81;5034896;28;20352;-78
2022/08/19 09:36:38;;;;;;;;;;;;;;;35.40;29.47;99098.53;5029858;28;19905;-78
2022/08/19 09:39:04;;;;;;;;;;;;;;;35.55;27.67;99094.97;5023781;28;19967;-78
2022/08/19 09:41:29;;;;;;;;;;;;;;;35.70;28.76;99090.66;5027019;28;19913;-78
2022/08/19 09:43:56;;;;;;;;;;;;;;;35.93;28.64;99091.63;5032315;28;19916;-78
2022/08/19 09:46:23;;;;;;;;;;;;;;;35.93;28.64;99086.13;5030480;28;19921;-78
2022/08/19 09:48:50;;;;;;;;;;;;;;;36.13;28.53;99078.72;5032747;28;19913;-78
2022/08/19 09:51:17;;;;;;;;;;;;;;;36.29;27.83;99078.69;5032446;28;20453;-78
2022/08/19 09:53:45;;;;;;;;;;;;;;;36.44;28.39;99083.38;5031009;28;20374;-78
2022/08/19 09:56:11;;;;;;;;;;;;;;;36.53;28.61;99075.69;5027949;28;19936;-78
2022/08/19 09:58:37;;;;;;;;;;;;;;;36.62;27.83;99085.69;5013974;28;19980;-78
2022/08/19 10:01:02;;;;;;;;;;;;;;;36.73;27.90;99078.44;5035655;28;20001;-78
2022/08/19 10:03:29;;;;;;;;;;;;;;;36.93;26.57;99077.28;5035847;28;19955;-78
2022/08/19 10:05:54;;;;;;;;;;;;;;;37.07;27.13;99077.53;5031980;28;19917;-78
2022/08/19 10:08:22;;;;;;;;;;;;;;;37.10;26.71;99065.78;5031735;28;19915;-78
2022/08/19 10:10:48;;;;;;;;;;;;;;;37.33;26.28;99071.34;5028535;28;20432;-78
2022/08/19 10:13:14;;;;;;;;;;;;;;;37.55;26.26;99061.47;5031607;28;19999;-78
2022/08/19 10:15:40;;;;;;;;;;;;;;;37.77;25.71;99065.38;5031387;28;19988;-78
2022/08/19 10:18:06;;;;;;;;;;;;;;;37.93;25.42;99068.00;5031418;28;20004;-78
2022/08/19 10:20:31;;;;;;;;;;;;;;;38.06;25.92;99064.66;5027792;28;19920;-78
2022/08/19 10:22:59;;;;;;;;;;;;;;;38.09;25.65;99065.88;5051643;28;20386;-78
2022/08/19 10:25:24;;;;;;;;;;;;;;;38.14;26.21;99069.09;5030295;28;19921;-78
2022/08/19 10:27:49;;;;;;;;;;;;;;;38.18;25.62;99065.63;5029665;28;19912;-77
2022/08/19 10:30:14;;;;;;;;;;;;;;;38.20;24.35;99072.34;5030891;28;19947;-78
2022/08/19 10:32:40;;;;;;;;;;;;;;;38.30;24.61;99068.94;5044414;28;19913;-78
2022/08/19 10:35:08;;;;;;;;;;;;;;;38.59;23.24;99058.25;5042814;28;19959;-78
2022/08/19 10:37:34;;;;;;;;;;;;;;;38.72;25.64;99048.59;5020953;28;20333;-78
2022/08/19 10:40:00;;;;;;;;;;;;;;;38.74;24.46;99047.03;5061173;28;20438;-78
2022/08/19 10:42:25;;;;;;;;;;;;;;;38.92;24.22;99052.75;5026919;28;19995;-78
2022/08/19 10:44:50;;;;;;;;;;;;;;;38.96;23.31;99055.53;5012395;28;19940;-77
2022/08/19 10:47:16;;;;;;;;;;;;;;;39.02;23.59;99048.50;5030301;28;19915;-76
2022/08/19 10:52:34;;;;;;;;;;;;;;;39.21;21.98;99051.06;5030740;28;20364;-76
2022/08/19 10:57:43;;;;;;;;;;;;;;;39.05;23.44;99034.75;5031579;28;19934;-76
2022/08/19 11:00:09;;;;;;;;;;;;;;;39.07;23.83;99037.13;5031381;28;19909;-76
2022/08/19 11:02:34;;;;;;;;;;;;;;;39.29;23.93;99027.84;5030961;28;20385;-76
2022/08/19 11:05:00;;;;;;;;;;;;;;;39.32;22.04;99029.06;5031470;28;19920;-76
2022/08/19 11:07:26;;;;;;;;;;;;;;;39.44;22.09;99014.97;5030863;28;20402;-76
2022/08/19 11:09:51;;;;;;;;;;;;;;;39.53;22.34;99020.97;5029565;28;19963;-76
2022/08/19 11:12:17;;;;;;;;;;;;;;;39.44;22.78;99011.41;5019997;28;19955;-76
2022/08/19 11:14:42;;;;;;;;;;;;;;;39.09;22.43;99023.75;5012718;28;20039;-77
2022/08/19 11:17:07;;;;;;;;;;;;;;;38.91;22.75;99026.31;5030968;28;19917;-77
2022/08/19 11:19:33;;;;;;;;;;;;;;;39.03;22.78;99022.47;5030863;28;19909;-76
2022/08/19 11:22:01;;;;;;;;;;;;;;;39.01;23.09;99016.53;5030952;28;19971;-77
2022/08/19 11:24:27;;;;;;;;;;;;;;;39.21;22.90;99011.59;5031120;28;20328;-77
2022/08/19 11:26:56;;;;;;;;;;;;;;;39.47;21.85;99013.41;5062843;28;19912;-76
2022/08/19 11:29:25;;;;;;;;;;;;;;;39.67;23.10;99006.47;5052002;28;20332;-76
2022/08/19 11:31:51;;;;;;;;;;;;;;;39.90;22.40;98997.91;5041175;28;19920;-76
2022/08/19 11:34:25;;;;;;;;;;;;;;;39.82;21.95;99002.59;5030436;28;20003;-76
2022/08/19 11:36:51;;;;;;;;;;;;;;;40.05;21.85;98993.25;5033835;28;20297;-76
2022/08/19 11:39:18;;;;;;;;;;;;;;;39.98;22.08;98994.81;5043665;28;19920;-76
2022/08/19 11:41:44;;;;;;;;;;;;;;;39.58;23.02;98992.19;5031553;28;19920;-76
2022/08/19 11:44:10;;;;;;;;;;;;;;;39.69;22.39;98982.78;5031004;28;19913;-76
2022/08/19 11:46:37;;;;;;;;;;;;;;;39.96;21.94;98985.31;5051421;28;20378;-77
2022/08/19 11:49:03;;;;;;;;;;;;;;;40.17;22.13;98982.66;5024363;28;19913;-76
2022/08/19 11:51:29;;;;;;;;;;;;;;;40.32;22.12;98987.06;5034798;28;19913;-76
2022/08/19 11:53:55;;;;;;;;;;;;;;;40.18;22.14;98975.97;5054199;28;19916;-76
2022/08/19 11:56:21;;;;;;;;;;;;;;;39.86;21.72;98972.22;5032760;28;19912;-76
2022/08/19 11:58:46;;;;;;;;;;;;;;;39.97;22.22;98975.84;5043256;28;19905;-76
2022/08/19 12:01:15;;;;;;;;;;;;;;;40.31;22.28;98981.91;5033855;28;20393;-76
2022/08/19 12:03:40;;;;;;;;;;;;;;;40.26;21.61;98982.31;5031996;28;19917;-76
2022/08/19 12:06:10;;;;;;;;;;;;;;;40.34;20.73;98975.59;5029383;28;19917;-76
2022/08/19 12:08:35;;;;;;;;;;;;;;;40.12;20.50;98966.41;5026269;28;19912;-76
2022/08/19 12:11:03;;;;;;;;;;;;;;;40.06;21.17;98964.41;5030575;28;19936;-76
2022/08/19 12:13:30;;;;;;;;;;;;;;;40.14;22.13;98966.84;5035449;28;19924;-76
2022/08/19 12:15:55;;;;;;;;;;;;;;;40.36;21.77;98962.19;5033945;28;19913;-76
2022/08/19 12:18:21;;;;;;;;;;;;;;;40.60;20.37;98955.91;5037774;28;20409;-76
2022/08/19 12:20:47;;;;;;;;;;;;;;;40.67;21.24;98962.66;5025582;28;19957;-77
2022/08/19 12:23:12;;;;;;;;;;;;;;;40.75;21.77;98955.94;5026940;28;19920;-76
2022/08/19 12:25:49;;;;;;;;;;;;;;;40.45;20.64;98961.81;5033952;28;19920;-76
2022/08/19 12:28:16;;;;;;;;;;;;;;;40.12;21.50;98960.09;5033979;28;19952;-76
2022/08/19 12:30:41;;;;;;;;;;;;;;;40.01;21.76;98962.81;5033756;28;19909;-76
2022/08/19 12:33:07;;;;;;;;;;;;;;;39.79;22.18;98959.16;5034835;28;19913;-76
2022/08/19 12:35:32;;;;;;;;;;;;;;;39.48;22.07;98955.00;5030264;28;19913;-76
2022/08/19 12:37:58;;;;;;;;;;;;;;;39.35;22.08;98959.22;5031158;28;19971;-76
2022/08/19 12:40:24;;;;;;;;;;;;;;;39.29;22.63;98953.28;5032733;28;19971;-76
2022/08/19 12:42:50;;;;;;;;;;;;;;;39.44;22.40;98951.44;5033323;28;19913;-76
2022/08/19 12:45:16;;;;;;;;;;;;;;;39.43;21.48;98949.84;5033106;28;19913;-76
2022/08/19 12:47:41;;;;;;;;;;;;;;;39.33;22.55;98956.84;5032925;28;19913;-76
2022/08/19 12:50:08;;;;;;;;;;;;;;;39.24;21.90;98952.84;5033354;28;19966;-76
2022/08/19 12:52:36;;;;;;;;;;;;;;;39.22;22.04;98942.19;5043261;28;19974;-76
2022/08/19 12:55:02;;;;;;;;;;;;;;;39.64;21.89;98944.47;5031306;28;19947;-76
2022/08/19 12:57:27;;;;;;;;;;;;;;;39.93;21.77;98941.88;5035985;28;19913;-76
2022/08/19 12:59:53;;;;;;;;;;;;;;;40.08;21.20;98942.69;5038847;28;20591;-76
2022/08/19 13:02:19;;;;;;;;;;;;;;;40.17;21.36;98932.88;5032362;28;19909;-76
2022/08/19 13:04:45;;;;;;;;;;;;;;;40.21;21.80;98936.44;5033020;28;19917;-76